createdAt,value
2023-03-19T00:00:41.753Z,2.92
2023-03-19T00:03:48.078Z,2.99
2023-03-19T00:06:55.045Z,3.06
2023-03-19T00:10:10.044Z,3.07
2023-03-19T00:13:17.521Z,3.14
2023-03-19T00:16:23.817Z,3.20
2023-03-19T00:19:31.036Z,3.23
2023-03-19T00:22:37.390Z,3.28
2023-03-19T00:25:46.789Z,3.24
2023-03-19T00:28:52.612Z,3.29
2023-03-19T00:31:59.421Z,3.26
2023-03-19T00:35:06.583Z,3.23
2023-03-19T00:38:13.346Z,3.19
2023-03-19T00:41:23.014Z,3.15
2023-03-19T00:44:29.952Z,3.05
2023-03-19T00:47:36.328Z,3.10
2023-03-19T00:50:43.058Z,3.06
2023-03-19T00:53:49.240Z,3.10
2023-03-19T00:56:58.615Z,3.18
2023-03-19T01:00:04.606Z,3.15
2023-03-19T01:03:11.422Z,3.15
2023-03-19T01:06:17.599Z,3.18
2023-03-19T01:09:24.648Z,3.18
2023-03-19T01:12:33.255Z,3.20
2023-03-19T01:15:40.662Z,3.21
2023-03-19T01:18:46.774Z,3.24
2023-03-19T01:21:53.838Z,3.27
2023-03-19T01:25:01.769Z,3.27
2023-03-19T01:28:11.816Z,3.31
2023-03-19T01:31:19.713Z,3.25
2023-03-19T01:34:49.498Z,3.28
2023-03-19T01:37:56.429Z,3.28
2023-03-19T01:41:04.733Z,3.24
2023-03-19T01:44:35.141Z,3.25
2023-03-19T01:48:00.578Z,3.26
2023-03-19T01:51:26.945Z,3.23
2023-03-19T01:54:53.849Z,3.23
2023-03-19T01:58:19.261Z,3.17
2023-03-19T02:01:59.451Z,3.12
2023-03-19T02:05:13.869Z,3.02
2023-03-19T02:08:27.373Z,3.01
2023-03-19T02:11:35.918Z,2.91
2023-03-19T02:14:42.828Z,2.85
2023-03-19T02:17:52.091Z,2.86
2023-03-19T02:21:09.742Z,2.83
2023-03-19T02:24:24.206Z,2.83
2023-03-19T02:27:42.892Z,2.88
2023-03-19T02:30:49.760Z,2.91
2023-03-19T02:34:06.513Z,2.88
2023-03-19T02:37:22.628Z,2.89
2023-03-19T02:40:38.818Z,2.95
2023-03-19T02:43:54.461Z,2.94
2023-03-19T02:47:01.595Z,2.94
2023-03-19T02:50:09.896Z,2.83
2023-03-19T02:53:16.167Z,2.66
2023-03-19T02:56:22.876Z,2.58
2023-03-19T02:59:31.752Z,2.47
2023-03-19T03:02:38.812Z,2.31
2023-03-19T03:05:45.171Z,2.14
2023-03-19T03:08:58.596Z,2.03
2023-03-19T03:12:04.775Z,1.95
2023-03-19T03:15:17.648Z,1.86
2023-03-19T03:18:26.019Z,1.87
2023-03-19T03:21:35.381Z,1.70
2023-03-19T03:24:43.777Z,1.56
2023-03-19T03:27:50.510Z,1.48
2023-03-19T03:31:05.811Z,1.41
2023-03-19T03:34:13.238Z,1.41
2023-03-19T03:37:19.949Z,1.35
2023-03-19T03:40:27.689Z,1.28
2023-03-19T03:43:34.095Z,1.19
2023-03-19T03:46:46.399Z,1.18
2023-03-19T03:49:52.489Z,1.11
2023-03-19T03:52:59.318Z,1.15
2023-03-19T03:56:05.627Z,1.10
2023-03-19T03:59:12.645Z,1.25
2023-03-19T04:02:21.183Z,1.41
2023-03-19T04:05:31.675Z,1.36
2023-03-19T04:08:43.705Z,1.12
2023-03-19T04:11:52.057Z,1.12
2023-03-19T04:14:58.091Z,1.22
2023-03-19T04:18:07.805Z,1.26
2023-03-19T04:21:13.825Z,1.24
2023-03-19T04:24:27.089Z,1.31
2023-03-19T04:27:36.037Z,1.26
2023-03-19T04:30:43.677Z,1.28
2023-03-19T04:33:53.752Z,1.27
2023-03-19T04:37:02.455Z,1.18
2023-03-19T04:40:12.656Z,1.00
2023-03-19T04:43:21.355Z,0.77
2023-03-19T04:46:28.210Z,0.67
2023-03-19T04:49:44.538Z,0.72
2023-03-19T04:52:57.117Z,0.77
2023-03-19T04:56:18.190Z,0.76
2023-03-19T04:59:25.351Z,0.70
2023-03-19T05:02:32.558Z,0.69
2023-03-19T05:05:41.542Z,0.50
2023-03-19T05:08:54.012Z,0.41
2023-03-19T05:12:02.129Z,0.33
2023-03-19T05:15:14.718Z,0.28
2023-03-19T05:18:29.981Z,0.41
2023-03-19T05:21:41.103Z,0.46
2023-03-19T05:24:47.242Z,0.51
2023-03-19T05:27:54.513Z,0.60
2023-03-19T05:31:10.154Z,0.61
2023-03-19T05:34:24.570Z,0.61
2023-03-19T05:37:33.910Z,0.62
2023-03-19T05:40:42.217Z,0.76
2023-03-19T05:44:01.857Z,0.61
2023-03-19T05:47:28.798Z,0.49
2023-03-19T05:50:36.763Z,0.53
2023-03-19T05:54:13.003Z,0.81
2023-03-19T05:57:32.281Z,1.32
2023-03-19T06:00:59.982Z,1.90
2023-03-19T06:04:09.529Z,2.44
2023-03-19T06:07:16.709Z,2.99
2023-03-19T06:10:32.385Z,3.06
2023-03-19T06:13:46.213Z,3.36
2023-03-19T06:16:57.965Z,4.07
2023-03-19T06:20:07.587Z,3.93
2023-03-19T06:23:16.210Z,3.49
2023-03-19T06:26:26.000Z,4.03
2023-03-19T06:29:36.361Z,4.89
2023-03-19T06:32:56.011Z,4.74
2023-03-19T06:36:03.444Z,4.59
2023-03-19T06:39:13.031Z,4.79
2023-03-19T06:42:21.761Z,5.62
2023-03-19T06:45:28.889Z,6.01
2023-03-19T06:48:34.776Z,5.83
2023-03-19T06:51:41.505Z,5.90
2023-03-19T06:54:47.454Z,5.80
2023-03-19T06:57:56.783Z,6.03
2023-03-19T07:01:09.229Z,5.92
2023-03-19T07:04:16.141Z,6.28
2023-03-19T07:07:23.184Z,6.23
2023-03-19T07:10:30.104Z,6.21
2023-03-19T07:13:49.706Z,5.65
2023-03-19T07:16:56.479Z,5.65
2023-03-19T07:20:02.367Z,5.76
2023-03-19T07:23:15.179Z,6.11
2023-03-19T07:26:21.424Z,6.22
2023-03-19T07:29:30.827Z,6.10
2023-03-19T07:32:44.092Z,6.40
2023-03-19T07:35:51.077Z,6.81
2023-03-19T07:38:57.631Z,8.00
2023-03-19T07:42:04.611Z,8.82
2023-03-19T07:45:15.301Z,9.07
2023-03-19T07:48:23.193Z,9.29
2023-03-19T07:51:29.673Z,9.76
2023-03-19T07:54:36.974Z,10.68
2023-03-19T07:57:42.952Z,11.81
2023-03-19T08:00:57.081Z,11.39
2023-03-19T08:04:05.018Z,11.65
2023-03-19T08:07:14.298Z,11.61
2023-03-19T08:10:21.038Z,11.66
2023-03-19T08:13:27.844Z,11.22
2023-03-19T08:16:36.621Z,11.79
2023-03-19T08:19:43.315Z,11.13
2023-03-19T08:22:53.989Z,11.23
2023-03-19T08:26:00.850Z,12.92
2023-03-19T08:29:14.134Z,13.54
2023-03-19T08:32:23.628Z,14.59
2023-03-19T08:35:30.009Z,13.70
2023-03-19T08:38:36.848Z,13.89
2023-03-19T08:41:49.104Z,14.60
2023-03-19T08:44:56.641Z,16.28
2023-03-19T08:48:05.270Z,15.29
2023-03-19T08:51:13.179Z,14.14
2023-03-19T08:54:24.442Z,15.00
2023-03-19T08:57:31.346Z,15.85
2023-03-19T09:00:37.369Z,17.22
2023-03-19T09:03:50.262Z,15.81
2023-03-19T09:06:56.562Z,16.57
2023-03-19T09:10:03.305Z,14.96
2023-03-19T09:13:09.479Z,14.57
2023-03-19T09:16:19.284Z,15.58
2023-03-19T09:19:29.194Z,16.13
2023-03-19T09:22:36.482Z,15.84
2023-03-19T09:25:46.370Z,16.74
2023-03-19T09:28:56.455Z,17.21
2023-03-19T09:32:03.307Z,17.82
2023-03-19T09:35:14.091Z,18.53
2023-03-19T09:38:20.054Z,19.38
2023-03-19T09:41:43.504Z,19.79
2023-03-19T09:44:50.493Z,18.13
2023-03-19T09:48:15.229Z,19.32
2023-03-19T09:51:36.392Z,19.75
2023-03-19T09:54:52.796Z,19.51
2023-03-19T09:58:09.215Z,17.28
2023-03-19T10:01:43.995Z,18.32
2023-03-19T10:05:09.450Z,18.56
2023-03-19T10:08:49.294Z,18.92
2023-03-19T10:12:20.484Z,18.93
2023-03-19T10:15:33.602Z,18.36
2023-03-19T10:18:42.894Z,19.52
2023-03-19T10:22:02.924Z,19.37
2023-03-19T10:25:22.984Z,16.47
2023-03-19T10:28:33.038Z,18.22
2023-03-19T10:31:52.078Z,19.57
2023-03-19T10:35:08.442Z,18.54
2023-03-19T10:38:25.953Z,16.39
2023-03-19T10:41:56.561Z,16.76
2023-03-19T10:45:13.190Z,16.92
2023-03-19T10:48:22.593Z,16.70
2023-03-19T10:51:30.865Z,17.72
2023-03-19T10:54:48.563Z,16.34
2023-03-19T10:58:08.531Z,17.01
2023-03-19T11:01:16.833Z,17.21
2023-03-19T11:04:26.560Z,15.98
2023-03-19T11:07:40.316Z,16.10
2023-03-19T11:10:53.097Z,16.97
2023-03-19T11:14:10.417Z,17.91
2023-03-19T11:17:26.528Z,17.76
2023-03-19T11:20:42.060Z,17.30
2023-03-19T11:23:48.210Z,17.36
2023-03-19T11:26:59.789Z,16.95
2023-03-19T11:30:23.342Z,18.09
2023-03-19T11:34:00.269Z,18.90
2023-03-19T11:37:29.319Z,18.16
2023-03-19T11:40:47.759Z,16.64
2023-03-19T11:44:05.257Z,16.10
2023-03-19T11:47:38.000Z,17.35
2023-03-19T11:50:58.020Z,17.53
2023-03-19T11:54:19.293Z,17.86
2023-03-19T11:57:49.741Z,17.91
2023-03-19T12:01:03.368Z,16.83
2023-03-19T12:04:42.170Z,16.82
2023-03-19T12:08:07.562Z,17.47
2023-03-19T12:11:35.540Z,16.90
2023-03-19T12:15:05.271Z,17.62
2023-03-19T12:18:31.455Z,17.81
2023-03-19T12:22:07.010Z,17.02
2023-03-19T12:25:38.909Z,17.53
2023-03-19T12:28:59.633Z,18.42
2023-03-19T12:32:34.079Z,18.58
2023-03-19T12:35:43.484Z,19.04
2023-03-19T12:39:01.299Z,18.60
2023-03-19T12:42:19.440Z,19.02
2023-03-19T12:45:35.083Z,16.80
2023-03-19T12:48:53.603Z,17.52
2023-03-19T12:52:09.750Z,18.04
2023-03-19T12:55:26.157Z,18.20
2023-03-19T12:58:58.574Z,19.14
2023-03-19T13:02:23.923Z,19.56
2023-03-19T13:05:43.729Z,18.82
2023-03-19T13:09:01.292Z,18.29
2023-03-19T13:12:21.572Z,18.61
2023-03-19T13:15:40.568Z,16.87
2023-03-19T13:19:01.510Z,15.95
2023-03-19T13:22:18.427Z,15.95
2023-03-19T13:25:34.336Z,16.61
2023-03-19T13:29:04.574Z,16.67
2023-03-19T13:32:26.976Z,16.14
2023-03-19T13:35:43.896Z,15.63
2023-03-19T13:38:54.506Z,15.57
2023-03-19T13:42:24.569Z,15.13
2023-03-19T13:45:40.631Z,15.14
2023-03-19T13:48:56.775Z,14.76
2023-03-19T13:52:07.311Z,14.73
2023-03-19T13:55:51.335Z,14.58
2023-03-19T13:59:28.225Z,14.81
2023-03-19T14:02:56.844Z,14.28
2023-03-19T14:06:04.048Z,14.48
2023-03-19T14:09:49.634Z,14.02
2023-03-19T14:13:11.917Z,14.30
2023-03-19T14:16:27.462Z,14.17
2023-03-19T14:19:45.504Z,13.85
2023-03-19T14:23:17.972Z,13.44
2023-03-19T14:26:29.685Z,12.97
2023-03-19T14:29:39.085Z,12.96
2023-03-19T14:32:48.863Z,13.42
2023-03-19T14:36:06.051Z,13.68
2023-03-19T14:39:24.776Z,13.58
2023-03-19T14:42:43.494Z,13.15
2023-03-19T14:46:04.280Z,13.24
2023-03-19T14:49:57.945Z,13.20
2023-03-19T14:53:18.774Z,13.12
2023-03-19T14:56:34.822Z,13.25
2023-03-19T14:59:42.223Z,13.34
2023-03-19T15:02:53.551Z,13.66
2023-03-19T15:06:04.676Z,13.35
2023-03-19T15:09:26.981Z,13.26
2023-03-19T15:13:01.159Z,12.95
2023-03-19T15:16:40.438Z,12.74
2023-03-19T15:19:48.887Z,12.76
2023-03-19T15:23:05.770Z,12.93
2023-03-19T15:26:31.954Z,12.97
2023-03-19T15:29:38.757Z,13.35
2023-03-19T15:33:07.860Z,13.24
2023-03-19T15:36:18.545Z,12.86
2023-03-19T15:39:31.941Z,12.75
2023-03-19T15:42:43.464Z,12.89
2023-03-19T15:45:57.655Z,12.88
2023-03-19T15:49:17.448Z,12.89
2023-03-19T15:52:24.774Z,12.72
2023-03-19T15:55:32.819Z,12.64
2023-03-19T15:58:53.195Z,12.62
2023-03-19T16:02:04.448Z,12.53
2023-03-19T16:05:26.585Z,12.33
2023-03-19T16:08:34.670Z,12.43
2023-03-19T16:11:49.544Z,12.59
2023-03-19T16:14:58.966Z,12.69
2023-03-19T16:18:27.935Z,12.66
2023-03-19T16:21:42.642Z,12.63
2023-03-19T16:24:52.856Z,12.60
2023-03-19T16:28:01.886Z,12.65
2023-03-19T16:31:25.216Z,12.38
2023-03-19T16:34:46.847Z,12.15
2023-03-19T16:38:14.147Z,12.08
2023-03-19T16:41:27.884Z,11.89
2023-03-19T16:44:33.919Z,11.74
2023-03-19T16:47:43.483Z,11.70
2023-03-19T16:50:50.405Z,11.69
2023-03-19T16:53:57.658Z,11.67
2023-03-19T16:57:04.307Z,11.60
2023-03-19T17:00:16.707Z,11.56
2023-03-19T17:03:26.350Z,11.50
2023-03-19T17:06:34.675Z,11.39
2023-03-19T17:09:41.421Z,11.28
2023-03-19T17:12:53.219Z,11.23
2023-03-19T17:16:04.010Z,11.11
2023-03-19T17:19:23.914Z,11.00
2023-03-19T17:22:30.116Z,10.80
2023-03-19T17:25:37.095Z,10.68
2023-03-19T17:28:43.013Z,10.57
2023-03-19T17:31:51.199Z,10.39
2023-03-19T17:34:59.963Z,10.27
2023-03-19T17:38:07.190Z,10.17
2023-03-19T17:41:20.047Z,10.07
2023-03-19T17:44:28.155Z,10.00
2023-03-19T17:47:35.582Z,9.80
2023-03-19T17:50:45.357Z,9.66
2023-03-19T17:53:56.260Z,9.61
2023-03-19T17:57:05.062Z,9.55
2023-03-19T18:00:13.623Z,9.40
2023-03-19T18:03:24.778Z,9.35
2023-03-19T18:06:39.989Z,9.08
2023-03-19T18:09:47.187Z,9.12
2023-03-19T18:12:53.756Z,9.13
2023-03-19T18:16:00.815Z,9.04
2023-03-19T18:19:21.784Z,8.77
2023-03-19T18:22:31.202Z,8.72
2023-03-19T18:25:37.570Z,8.69
2023-03-19T18:28:45.586Z,8.64
2023-03-19T18:31:54.112Z,8.67
2023-03-19T18:35:02.005Z,8.76
2023-03-19T18:38:19.475Z,8.89
2023-03-19T18:41:29.615Z,8.92
2023-03-19T18:44:44.310Z,8.94
2023-03-19T18:47:55.249Z,8.97
2023-03-19T18:51:01.297Z,9.00
2023-03-19T18:54:12.827Z,9.02
2023-03-19T18:57:20.649Z,9.14
2023-03-19T19:00:33.011Z,9.15
2023-03-19T19:03:40.708Z,9.19
2023-03-19T19:06:48.362Z,9.21
2023-03-19T19:09:56.962Z,9.21
2023-03-19T19:13:06.403Z,9.14
2023-03-19T19:16:24.002Z,9.17
2023-03-19T19:19:31.097Z,9.16
2023-03-19T19:22:39.848Z,9.13
2023-03-19T19:25:55.358Z,9.13
2023-03-19T19:29:04.900Z,9.12
2023-03-19T19:32:25.011Z,9.09
2023-03-19T19:35:32.469Z,9.08
2023-03-19T19:38:41.482Z,9.09
2023-03-19T19:41:55.501Z,9.04
2023-03-19T19:45:03.726Z,8.99
2023-03-19T19:48:18.821Z,8.87
2023-03-19T19:51:34.520Z,8.79
2023-03-19T19:54:46.730Z,8.73
2023-03-19T19:57:59.443Z,8.66
2023-03-19T20:01:16.597Z,8.60
2023-03-19T20:04:26.493Z,8.53
2023-03-19T20:07:33.879Z,8.49
2023-03-19T20:10:46.100Z,8.48
2023-03-19T20:13:57.587Z,8.47
2023-03-19T20:17:05.820Z,8.49
2023-03-19T20:20:20.180Z,8.52
2023-03-19T20:23:28.042Z,8.46
2023-03-19T20:26:35.222Z,8.39
2023-03-19T20:29:53.968Z,8.34
2023-03-19T20:33:03.927Z,8.25
2023-03-19T20:36:16.669Z,8.17
2023-03-19T20:39:23.252Z,8.20
2023-03-19T20:42:36.701Z,8.18
2023-03-19T20:45:46.282Z,8.08
2023-03-19T20:48:54.306Z,8.04
2023-03-19T20:52:04.866Z,8.02
2023-03-19T20:55:21.715Z,8.04
2023-03-19T20:58:33.877Z,8.05
2023-03-19T21:01:47.781Z,7.99
2023-03-19T21:04:54.496Z,8.00
2023-03-19T21:08:01.923Z,7.87
2023-03-19T21:11:12.729Z,7.80
2023-03-19T21:14:20.560Z,7.84
2023-03-19T21:17:30.379Z,7.76
2023-03-19T21:20:42.764Z,7.64
2023-03-19T21:23:59.893Z,7.60
2023-03-19T21:27:06.899Z,7.56
2023-03-19T21:30:21.043Z,7.44
2023-03-19T21:33:45.473Z,7.37
2023-03-19T21:36:51.358Z,7.30
2023-03-19T21:39:58.227Z,7.26
2023-03-19T21:43:07.268Z,7.26
2023-03-19T21:46:24.491Z,7.17
2023-03-19T21:49:34.223Z,7.14
2023-03-19T21:52:57.580Z,7.10
2023-03-19T21:56:04.601Z,7.03
2023-03-19T21:59:18.353Z,6.95
2023-03-19T22:02:44.742Z,6.87
2023-03-19T22:05:55.904Z,6.86
2023-03-19T22:09:02.101Z,6.86
2023-03-19T22:12:13.673Z,6.88
2023-03-19T22:15:28.651Z,6.83
2023-03-19T22:18:35.324Z,6.88
2023-03-19T22:21:43.878Z,6.91
2023-03-19T22:24:50.779Z,6.85
2023-03-19T22:27:56.860Z,6.86
2023-03-19T22:31:06.471Z,7.00
2023-03-19T22:34:18.776Z,6.87
2023-03-19T22:37:33.042Z,6.84
2023-03-19T22:40:41.333Z,6.84
2023-03-19T22:43:49.636Z,6.80
2023-03-19T22:46:59.374Z,6.87
2023-03-19T22:50:06.343Z,6.81
2023-03-19T22:53:27.096Z,6.74
2023-03-19T22:56:33.757Z,6.74
2023-03-19T22:59:39.755Z,6.78
2023-03-19T23:02:50.995Z,6.78
2023-03-19T23:06:02.594Z,6.79
2023-03-19T23:09:23.026Z,6.75
2023-03-19T23:12:29.046Z,6.68
2023-03-19T23:15:35.998Z,6.59
2023-03-19T23:18:41.935Z,6.59
2023-03-19T23:21:49.034Z,6.61
2023-03-19T23:25:04.637Z,6.62
2023-03-19T23:28:22.758Z,6.57
2023-03-19T23:31:29.527Z,6.58
2023-03-19T23:34:49.705Z,6.51
2023-03-19T23:38:02.110Z,6.46
2023-03-19T23:41:21.402Z,6.37
2023-03-19T23:44:30.386Z,6.42
2023-03-19T23:47:38.839Z,6.42
2023-03-19T23:50:45.005Z,6.43
2023-03-19T23:53:52.750Z,6.43
2023-03-19T23:57:12.796Z,6.41
